Time;durP1;ratioP1;P1;durP2;ratioP2;P2;SDS_P1;SDS_P2;PMS_P1;PMS_P2;Temp;Humidity;BMP_temperature;BMP_pressure;BME280_temperature;BME280_humidity;BME280_pressure;Samples;Min_cycle;Max_cycle;Signal;HPM_P1;HPM_P2
2023/03/18 00:00:26;;;;;;;5.00;2.22;;;;;;;;;;5030764;28;20064;-61
2023/03/18 00:02:57;;;;;;;7.68;2.17;;;;;;;;;;5047060;28;20060;-65
2023/03/18 00:05:27;;;;;;;7.55;2.10;;;;;;;;;;5047105;28;20528;-63
2023/03/18 00:07:57;;;;;;;8.82;2.10;;;;;;;;;;5048080;28;20056;-65
2023/03/18 00:10:28;;;;;;;9.10;1.85;;;;;;;;;;4998144;28;20049;-65
2023/03/18 00:12:58;;;;;;;5.35;2.83;;;;;;;;;;5048250;28;20060;-68
2023/03/18 00:15:30;;;;;;;5.85;2.10;;;;;;;;;;5047191;28;20389;-63
2023/03/18 00:18:00;;;;;;;5.72;2.13;;;;;;;;;;5047842;28;20436;-63
2023/03/18 00:20:37;;;;;;;5.97;1.90;;;;;;;;;;5047958;28;20045;-63
2023/03/18 00:23:08;;;;;;;5.10;2.40;;;;;;;;;;5047822;28;20049;-71
2023/03/18 00:25:39;;;;;;;9.98;2.35;;;;;;;;;;5047956;28;20067;-64
2023/03/18 00:28:09;;;;;;;6.00;1.95;;;;;;;;;;5015464;28;20056;-65
2023/03/18 00:30:40;;;;;;;7.00;2.10;;;;;;;;;;5031112;28;20052;-66
2023/03/18 00:33:11;;;;;;;8.07;2.00;;;;;;;;;;5045739;28;20045;-64
2023/03/18 00:35:41;;;;;;;5.55;1.60;;;;;;;;;;5047460;28;20052;-62
2023/03/18 00:38:19;;;;;;;3.63;1.92;;;;;;;;;;5047448;28;20464;-61
2023/03/18 00:40:52;;;;;;;7.30;2.00;;;;;;;;;;5027495;28;20100;-67
2023/03/18 00:43:28;;;;;;;7.13;2.25;;;;;;;;;;5011238;28;20045;-67
2023/03/18 00:45:58;;;;;;;5.57;2.03;;;;;;;;;;5028054;28;20065;-65
2023/03/18 00:48:28;;;;;;;5.78;2.08;;;;;;;;;;5012105;28;20117;-66
2023/03/18 00:50:58;;;;;;;5.60;2.13;;;;;;;;;;5028458;28;20065;-66
2023/03/18 00:53:27;;;;;;;8.93;2.50;;;;;;;;;;5028688;28;20100;-66
2023/03/18 00:55:58;;;;;;;6.55;2.15;;;;;;;;;;4995160;28;20061;-63
2023/03/18 00:58:28;;;;;;;7.18;2.22;;;;;;;;;;4984932;28;20058;-66
2023/03/18 01:00:57;;;;;;;5.43;2.13;;;;;;;;;;4985547;28;20104;-65
2023/03/18 01:03:27;;;;;;;9.93;2.30;;;;;;;;;;5007952;28;20057;-66
2023/03/18 01:06:01;;;;;;;7.05;2.33;;;;;;;;;;4992224;28;20509;-66
2023/03/18 01:08:31;;;;;;;6.88;1.95;;;;;;;;;;4930624;29;20066;-66
2023/03/18 01:11:02;;;;;;;4.55;1.80;;;;;;;;;;4949730;29;20062;-66
2023/03/18 01:13:32;;;;;;;4.80;1.70;;;;;;;;;;4919045;29;20635;-66
2023/03/18 01:16:04;;;;;;;9.57;1.85;;;;;;;;;;4934275;29;20047;-66
2023/03/18 01:18:37;;;;;;;5.65;1.85;;;;;;;;;;4903724;29;20066;-66
2023/03/18 01:21:09;;;;;;;4.20;1.50;;;;;;;;;;4933872;29;20653;-66
2023/03/18 01:23:45;;;;;;;4.13;1.88;;;;;;;;;;4918728;29;20056;-62
2023/03/18 01:26:16;;;;;;;5.88;1.50;;;;;;;;;;4933542;29;20424;-66
2023/03/18 01:28:46;;;;;;;4.60;2.05;;;;;;;;;;4934072;29;20051;-67
2023/03/18 01:31:16;;;;;;;4.60;1.52;;;;;;;;;;4895969;29;20812;-66
2023/03/18 01:33:47;;;;;;;4.38;1.80;;;;;;;;;;4906545;29;20054;-65
2023/03/18 01:36:17;;;;;;;8.23;1.58;;;;;;;;;;4879971;29;20060;-66
2023/03/18 01:38:59;;;;;;;6.60;2.05;;;;;;;;;;4938497;29;20048;-66
2023/03/18 01:41:30;;;;;;;2.97;1.13;;;;;;;;;;4949131;29;20056;-66
2023/03/18 01:44:00;;;;;;;5.65;1.65;;;;;;;;;;4933331;29;20051;-66
2023/03/18 01:46:35;;;;;;;7.57;1.45;;;;;;;;;;4936372;29;20578;-65
2023/03/18 01:49:14;;;;;;;7.50;2.10;;;;;;;;;;4932279;29;20052;-68
2023/03/18 01:52:15;;;;;;;8.48;2.40;;;;;;;;;;4905922;29;20059;-65
2023/03/18 01:54:52;;;;;;;4.20;1.88;;;;;;;;;;4856462;29;20050;-66
2023/03/18 01:57:23;;;;;;;8.23;2.00;;;;;;;;;;4839840;29;20522;-66
2023/03/18 01:59:54;;;;;;;5.25;1.67;;;;;;;;;;4816089;29;20062;-66
2023/03/18 02:02:25;;;;;;;5.03;1.83;;;;;;;;;;4803638;29;20051;-66
2023/03/18 02:05:00;;;;;;;6.22;1.83;;;;;;;;;;4819538;29;20054;-64
2023/03/18 02:07:33;;;;;;;3.55;1.73;;;;;;;;;;4776054;29;20056;-66
2023/03/18 02:10:09;;;;;;;5.43;2.10;;;;;;;;;;4766381;30;20055;-66
2023/03/18 02:12:44;;;;;;;3.70;1.63;;;;;;;;;;4714683;30;20054;-66
2023/03/18 02:15:26;;;;;;;4.30;1.77;;;;;;;;;;4752507;30;20065;-66
2023/03/18 02:18:18;;;;;;;5.65;1.70;;;;;;;;;;4766959;30;20055;-64
2023/03/18 02:21:16;;;;;;;4.55;1.40;;;;;;;;;;4767140;30;20060;-66
2023/03/18 02:24:01;;;;;;;5.82;1.88;;;;;;;;;;4766828;30;20056;-66
2023/03/18 02:27:13;;;;;;;5.28;1.60;;;;;;;;;;4756296;30;20052;-66
2023/03/18 02:29:44;;;;;;;6.20;2.30;;;;;;;;;;4739174;30;20060;-62
2023/03/18 02:32:20;;;;;;;4.03;1.83;;;;;;;;;;4717502;30;20057;-66
2023/03/18 02:34:50;;;;;;;5.65;1.63;;;;;;;;;;4746371;30;20533;-66
2023/03/18 02:37:20;;;;;;;7.70;2.03;;;;;;;;;;4731640;30;20067;-64
2023/03/18 02:39:50;;;;;;;5.65;1.42;;;;;;;;;;4735423;30;20064;-66
2023/03/18 02:42:31;;;;;;;5.18;1.73;;;;;;;;;;4731214;30;20056;-67
2023/03/18 02:45:01;;;;;;;5.57;2.28;;;;;;;;;;4764322;30;20059;-66
2023/03/18 02:47:47;;;;;;;5.60;2.20;;;;;;;;;;4806880;29;20051;-63
2023/03/18 02:50:17;;;;;;;3.63;1.85;;;;;;;;;;4793772;29;20082;-66
2023/03/18 02:52:47;;;;;;;2.70;1.48;;;;;;;;;;4784050;30;20114;-69
2023/03/18 02:55:17;;;;;;;4.90;1.70;;;;;;;;;;4820234;29;20530;-67
2023/03/18 02:57:47;;;;;;;4.40;1.80;;;;;;;;;;4797572;29;20795;-65
2023/03/18 03:00:17;;;;;;;4.55;1.65;;;;;;;;;;4790684;29;20049;-66
2023/03/18 03:02:47;;;;;;;6.10;1.52;;;;;;;;;;4713936;30;20069;-65
2023/03/18 03:05:17;;;;;;;2.97;1.75;;;;;;;;;;4799780;29;20070;-65
2023/03/18 03:07:47;;;;;;;4.63;1.77;;;;;;;;;;4836664;29;20115;-66
2023/03/18 03:10:17;;;;;;;4.60;1.42;;;;;;;;;;4808721;29;20077;-65
2023/03/18 03:12:48;;;;;;;4.47;1.85;;;;;;;;;;4802066;29;20061;-65
2023/03/18 03:15:19;;;;;;;3.33;1.33;;;;;;;;;;4801968;29;20089;-66
2023/03/18 03:17:54;;;;;;;4.90;1.70;;;;;;;;;;4766012;30;20055;-63
2023/03/18 03:20:24;;;;;;;5.70;1.23;;;;;;;;;;4789103;29;20077;-66
2023/03/18 03:22:54;;;;;;;3.38;1.50;;;;;;;;;;4804753;29;20051;-65
2023/03/18 03:25:25;;;;;;;2.53;1.30;;;;;;;;;;4819153;29;20227;-65
2023/03/18 03:27:56;;;;;;;5.18;1.40;;;;;;;;;;4817492;29;20097;-65
2023/03/18 03:30:26;;;;;;;6.18;1.50;;;;;;;;;;4775290;30;20056;-66
2023/03/18 03:32:57;;;;;;;3.17;1.13;;;;;;;;;;4778738;29;20577;-65
2023/03/18 03:35:27;;;;;;;2.53;1.33;;;;;;;;;;4730886;30;20518;-65
2023/03/18 03:37:58;;;;;;;2.00;1.00;;;;;;;;;;4765360;30;20534;-66
2023/03/18 03:40:28;;;;;;;1.88;0.95;;;;;;;;;;4783110;29;20058;-64
2023/03/18 03:42:59;;;;;;;1.60;0.88;;;;;;;;;;4829132;29;20057;-63
2023/03/18 03:45:29;;;;;;;2.38;1.10;;;;;;;;;;4837966;29;20401;-67
2023/03/18 03:48:00;;;;;;;2.13;0.98;;;;;;;;;;4819931;29;20095;-61
2023/03/18 03:50:30;;;;;;;3.45;1.33;;;;;;;;;;4856750;29;20462;-65
2023/03/18 03:53:01;;;;;;;1.17;0.68;;;;;;;;;;4874980;29;20049;-71
2023/03/18 03:55:32;;;;;;;2.70;0.90;;;;;;;;;;4883887;29;20063;-66
2023/03/18 03:58:02;;;;;;;1.88;0.80;;;;;;;;;;4883789;29;20048;-66
2023/03/18 04:00:32;;;;;;;2.45;0.93;;;;;;;;;;4893352;29;20768;-66
2023/03/18 04:03:03;;;;;;;2.10;0.95;;;;;;;;;;4874693;29;20394;-64
2023/03/18 04:05:33;;;;;;;1.30;0.70;;;;;;;;;;4837767;29;20058;-64
2023/03/18 04:08:04;;;;;;;2.20;0.93;;;;;;;;;;4868702;29;20069;-65
2023/03/18 04:10:38;;;;;;;2.80;0.60;;;;;;;;;;4867512;29;20438;-64
2023/03/18 04:13:10;;;;;;;2.75;0.65;;;;;;;;;;4867621;29;20073;-60
2023/03/18 04:15:41;;;;;;;1.60;1.02;;;;;;;;;;4858444;29;20061;-65
2023/03/18 04:18:15;;;;;;;1.63;0.73;;;;;;;;;;4856170;29;20069;-64
2023/03/18 04:20:46;;;;;;;1.67;0.80;;;;;;;;;;4887959;29;20061;-65
2023/03/18 04:23:36;;;;;;;2.72;0.82;;;;;;;;;;4888779;29;20065;-64
2023/03/18 04:26:06;;;;;;;2.17;0.70;;;;;;;;;;4905149;29;20053;-66
2023/03/18 04:28:37;;;;;;;1.40;0.60;;;;;;;;;;4912158;29;20456;-66
2023/03/18 04:31:08;;;;;;;;;;;;;;;;;;4912332;29;20493;-66
2023/03/18 04:33:38;;;;;;;3.40;0.80;;;;;;;;;;4912067;29;19946;-62
2023/03/18 04:36:08;;;;;;;3.70;0.73;;;;;;;;;;4892776;29;20049;-66
2023/03/18 04:38:38;;;;;;;2.33;0.77;;;;;;;;;;4861822;29;20437;-60
2023/03/18 04:41:08;;;;;;;3.25;0.68;;;;;;;;;;4880203;29;20060;-65
2023/03/18 04:43:38;;;;;;;2.72;0.65;;;;;;;;;;4892789;29;20422;-62
2023/03/18 04:46:09;;;;;;;2.97;0.82;;;;;;;;;;4897033;29;20056;-65
2023/03/18 04:48:40;;;;;;;3.33;0.70;;;;;;;;;;4876707;29;20057;-66
2023/03/18 04:51:11;;;;;;;3.22;0.90;;;;;;;;;;4878104;29;20405;-64
2023/03/18 04:53:43;;;;;;;5.10;0.75;;;;;;;;;;4839828;29;20054;-63
2023/03/18 04:56:13;;;;;;;3.55;1.35;;;;;;;;;;4804557;29;20404;-63
2023/03/18 04:58:49;;;;;;;1.10;0.73;;;;;;;;;;4771490;30;20056;-61
2023/03/18 05:01:25;;;;;;;3.03;1.20;;;;;;;;;;4768410;30;20083;-63
2023/03/18 05:03:55;;;;;;;2.95;0.80;;;;;;;;;;4750533;30;20071;-65
2023/03/18 05:06:32;;;;;;;2.40;0.57;;;;;;;;;;4723080;30;20533;-67
2023/03/18 05:09:12;;;;;;;2.88;0.80;;;;;;;;;;4725833;30;20057;-67
2023/03/18 05:11:43;;;;;;;2.97;0.98;;;;;;;;;;4724120;30;20442;-66
2023/03/18 05:14:24;;;;;;;2.60;1.48;;;;;;;;;;4723914;30;20053;-64
2023/03/18 05:16:55;;;;;;;2.72;0.80;;;;;;;;;;4748512;30;20063;-62
2023/03/18 05:19:25;;;;;;;1.70;0.80;;;;;;;;;;4797515;29;20078;-65
2023/03/18 05:22:20;;;;;;;2.50;0.75;;;;;;;;;;4807915;29;20055;-65
2023/03/18 05:24:57;;;;;;;1.90;0.95;;;;;;;;;;4826744;29;20054;-60
2023/03/18 05:27:29;;;;;;;2.42;0.73;;;;;;;;;;4822178;29;20528;-69
2023/03/18 05:30:05;;;;;;;1.88;0.73;;;;;;;;;;4836169;29;20062;-62
2023/03/18 05:32:41;;;;;;;3.30;0.90;;;;;;;;;;4821644;29;20054;-63
2023/03/18 05:35:12;;;;;;;3.08;0.90;;;;;;;;;;4840070;29;20062;-62
2023/03/18 05:37:47;;;;;;;6.15;0.75;;;;;;;;;;4843447;29;20050;-64
2023/03/18 05:40:18;;;;;;;1.40;0.63;;;;;;;;;;4822156;29;20097;-62
2023/03/18 05:43:17;;;;;;;1.83;0.75;;;;;;;;;;4811961;29;20059;-66
2023/03/18 05:45:51;;;;;;;1.10;0.63;;;;;;;;;;4792503;29;20058;-65
2023/03/18 05:48:30;;;;;;;2.38;0.70;;;;;;;;;;4787296;29;20535;-65
2023/03/18 05:51:05;;;;;;;3.22;0.65;;;;;;;;;;4785675;29;20174;-65
2023/03/18 05:53:37;;;;;;;5.80;0.80;;;;;;;;;;4780198;29;20061;-65
2023/03/18 05:56:33;;;;;;;1.13;0.70;;;;;;;;;;4811813;29;20443;-65
2023/03/18 05:59:06;;;;;;;2.83;0.55;;;;;;;;;;4820525;29;20055;-65
2023/03/18 06:01:48;;;;;;;1.45;0.73;;;;;;;;;;4821441;29;20751;-65
2023/03/18 06:04:18;;;;;;;1.65;0.80;;;;;;;;;;4773370;29;20059;-65
2023/03/18 06:06:48;;;;;;;3.30;0.93;;;;;;;;;;4802985;29;20055;-65
2023/03/18 06:09:18;;;;;;;3.40;0.75;;;;;;;;;;4821536;29;20061;-67
2023/03/18 06:11:49;;;;;;;2.05;0.50;;;;;;;;;;4830971;29;20058;-63
2023/03/18 06:14:19;;;;;;;1.98;0.70;;;;;;;;;;4857875;29;20061;-67
2023/03/18 06:16:50;;;;;;;3.03;0.88;;;;;;;;;;4839542;29;20058;-65
2023/03/18 06:19:22;;;;;;;1.60;0.63;;;;;;;;;;4852827;29;20076;-62
2023/03/18 06:21:51;;;;;;;1.42;0.68;;;;;;;;;;4815584;29;20513;-66
2023/03/18 06:24:23;;;;;;;3.75;1.05;;;;;;;;;;4776257;29;20471;-67
2023/03/18 06:26:53;;;;;;;0.90;0.50;;;;;;;;;;4816884;29;20066;-62
2023/03/18 06:29:24;;;;;;;2.00;0.80;;;;;;;;;;4839550;29;20108;-63
2023/03/18 06:31:57;;;;;;;2.05;0.80;;;;;;;;;;4811874;29;20050;-65
2023/03/18 06:34:28;;;;;;;3.17;0.80;;;;;;;;;;4886684;29;20052;-63
2023/03/18 06:36:58;;;;;;;5.07;0.80;;;;;;;;;;4905958;29;20493;-65
2023/03/18 06:39:28;;;;;;;1.85;0.70;;;;;;;;;;4932641;29;20055;-63
2023/03/18 06:42:02;;;;;;;1.95;0.70;;;;;;;;;;4942319;29;20051;-65
2023/03/18 06:44:41;;;;;;;5.22;0.70;;;;;;;;;;4951853;29;20579;-65
2023/03/18 06:47:18;;;;;;;2.65;0.63;;;;;;;;;;4951685;28;20051;-60
2023/03/18 06:49:59;;;;;;;1.52;0.93;;;;;;;;;;4899259;29;20051;-63
2023/03/18 06:52:34;;;;;;;1.77;0.80;;;;;;;;;;4869409;29;20056;-70
2023/03/18 06:55:10;;;;;;;1.77;0.70;;;;;;;;;;4909547;29;20071;-65
2023/03/18 06:57:44;;;;;;;4.20;0.70;;;;;;;;;;4913276;29;20592;-60
2023/03/18 07:00:21;;;;;;;1.90;0.77;;;;;;;;;;4909949;29;20523;-66
2023/03/18 07:02:52;;;;;;;1.73;0.70;;;;;;;;;;4899300;29;20053;-65
2023/03/18 07:05:25;;;;;;;2.78;0.75;;;;;;;;;;4890386;29;20049;-66
2023/03/18 07:07:56;;;;;;;3.42;0.77;;;;;;;;;;4875718;29;20057;-65
2023/03/18 07:10:29;;;;;;;3.05;0.90;;;;;;;;;;4875549;29;20053;-64
2023/03/18 07:13:07;;;;;;;1.40;0.60;;;;;;;;;;4929869;29;20059;-64
2023/03/18 07:15:40;;;;;;;5.60;1.00;;;;;;;;;;4913231;29;20393;-64
2023/03/18 07:18:10;;;;;;;0.93;0.63;;;;;;;;;;4878290;29;20060;-66
2023/03/18 07:20:40;;;;;;;6.40;0.90;;;;;;;;;;4880789;29;20049;-62
2023/03/18 07:23:10;;;;;;;2.90;0.82;;;;;;;;;;4908042;29;20461;-63
2023/03/18 07:25:41;;;;;;;3.85;1.10;;;;;;;;;;4864269;29;20064;-65
2023/03/18 07:28:11;;;;;;;3.78;1.08;;;;;;;;;;4837968;29;20183;-62
2023/03/18 07:30:41;;;;;;;4.25;0.82;;;;;;;;;;4875059;29;20063;-64
2023/03/18 07:33:11;;;;;;;4.38;0.90;;;;;;;;;;4881727;29;20049;-69
2023/03/18 07:35:41;;;;;;;2.35;0.90;;;;;;;;;;4863821;29;20065;-60
2023/03/18 07:38:12;;;;;;;3.95;0.80;;;;;;;;;;4845726;29;20061;-65
2023/03/18 07:40:42;;;;;;;4.15;0.90;;;;;;;;;;4846099;29;20049;-65
2023/03/18 07:43:11;;;;;;;2.05;0.88;;;;;;;;;;4888866;29;20045;-63
2023/03/18 07:45:41;;;;;;;6.03;0.82;;;;;;;;;;4875422;29;20064;-64
2023/03/18 07:48:13;;;;;;;1.80;0.80;;;;;;;;;;4875322;29;20437;-64
2023/03/18 07:50:43;;;;;;;4.40;0.90;;;;;;;;;;4850841;29;20068;-65
2023/03/18 07:53:13;;;;;;;4.63;0.80;;;;;;;;;;4864631;29;20067;-62
2023/03/18 07:55:47;;;;;;;3.53;0.82;;;;;;;;;;4884149;29;20101;-67
2023/03/18 07:58:17;;;;;;;3.75;1.08;;;;;;;;;;4893888;29;20402;-66
2023/03/18 08:00:48;;;;;;;1.58;0.70;;;;;;;;;;4896586;29;20432;-63
2023/03/18 08:03:17;;;;;;;4.63;0.88;;;;;;;;;;4905345;29;20074;-65
2023/03/18 08:05:48;;;;;;;3.33;0.75;;;;;;;;;;4949544;28;20057;-64
2023/03/18 08:08:18;;;;;;;1.83;1.00;;;;;;;;;;4998818;28;20054;-65
2023/03/18 08:10:47;;;;;;;2.50;0.82;;;;;;;;;;5018355;28;20058;-62
2023/03/18 08:13:17;;;;;;;2.13;0.88;;;;;;;;;;5028870;28;20221;-65
2023/03/18 08:15:47;;;;;;;2.22;0.82;;;;;;;;;;5028370;28;20057;-65
2023/03/18 08:18:17;;;;;;;4.05;0.90;;;;;;;;;;5028368;28;20409;-65
2023/03/18 08:20:48;;;;;;;4.03;0.85;;;;;;;;;;5028476;28;20078;-65
2023/03/18 08:23:18;;;;;;;1.52;0.70;;;;;;;;;;5028244;28;20049;-64
2023/03/18 08:25:51;;;;;;;3.42;0.80;;;;;;;;;;5028503;28;20061;-66
2023/03/18 08:28:21;;;;;;;9.02;1.10;;;;;;;;;;5028457;28;20076;-65
2023/03/18 08:30:55;;;;;;;3.03;0.80;;;;;;;;;;5008335;28;20069;-65
2023/03/18 08:33:26;;;;;;;4.05;1.00;;;;;;;;;;4972744;28;20061;-66
2023/03/18 08:35:57;;;;;;;6.25;1.15;;;;;;;;;;4969254;28;20051;-63
2023/03/18 08:38:27;;;;;;;2.95;0.88;;;;;;;;;;4963214;28;20069;-65
2023/03/18 08:40:58;;;;;;;3.28;0.75;;;;;;;;;;4973260;28;20054;-64
2023/03/18 08:43:28;;;;;;;2.88;0.90;;;;;;;;;;5008607;28;20051;-67
2023/03/18 08:45:58;;;;;;;2.95;0.90;;;;;;;;;;4976032;28;20057;-62
2023/03/18 08:48:28;;;;;;;3.67;0.70;;;;;;;;;;4969582;28;20059;-61
2023/03/18 08:50:58;;;;;;;2.90;0.90;;;;;;;;;;4949664;28;20055;-65
2023/03/18 08:53:28;;;;;;;3.28;0.90;;;;;;;;;;4950288;28;20459;-62
2023/03/18 08:55:59;;;;;;;6.32;0.98;;;;;;;;;;4950355;28;20051;-67
2023/03/18 08:58:31;;;;;;;3.90;0.90;;;;;;;;;;4930740;29;20500;-62
2023/03/18 09:01:03;;;;;;;4.35;1.08;;;;;;;;;;4930604;29;20471;-62
2023/03/18 09:03:34;;;;;;;4.07;1.05;;;;;;;;;;4884012;29;20055;-65
2023/03/18 09:06:05;;;;;;;2.55;0.70;;;;;;;;;;4899471;29;20056;-63
2023/03/18 09:08:35;;;;;;;1.73;0.88;;;;;;;;;;4909760;29;20051;-60
2023/03/18 09:11:06;;;;;;;2.83;1.10;;;;;;;;;;4943021;28;20062;-64
2023/03/18 09:13:37;;;;;;;6.80;1.10;;;;;;;;;;4949836;28;20053;-69
2023/03/18 09:16:07;;;;;;;5.30;1.00;;;;;;;;;;4968711;28;20054;-62
2023/03/18 09:18:38;;;;;;;5.32;1.23;;;;;;;;;;4957088;28;20065;-60
2023/03/18 09:21:11;;;;;;;5.70;1.00;;;;;;;;;;5007879;28;20056;-62
2023/03/18 09:23:42;;;;;;;3.60;1.05;;;;;;;;;;5008090;28;20073;-61
2023/03/18 09:26:11;;;;;;;2.55;0.80;;;;;;;;;;4975698;28;20058;-65
2023/03/18 09:28:41;;;;;;;3.83;0.75;;;;;;;;;;5018455;28;20597;-64
2023/03/18 09:31:12;;;;;;;3.22;1.05;;;;;;;;;;5027920;28;20061;-65
2023/03/18 09:33:42;;;;;;;3.92;1.10;;;;;;;;;;5008167;28;20061;-64
2023/03/18 09:36:16;;;;;;;4.30;1.23;;;;;;;;;;5021651;28;20547;-64
2023/03/18 09:38:46;;;;;;;1.67;0.90;;;;;;;;;;5031468;28;20064;-62
2023/03/18 09:41:47;;;;;;;7.40;1.10;;;;;;;;;;5011091;28;20489;-60
2023/03/18 09:44:28;;;;;;;6.85;1.08;;;;;;;;;;5011634;28;20130;-66
2023/03/18 09:47:22;;;;;;;4.90;1.00;;;;;;;;;;5011695;28;20049;-65
2023/03/18 09:50:14;;;;;;;1.90;1.10;;;;;;;;;;4979185;28;20050;-64
2023/03/18 09:52:49;;;;;;;10.30;1.65;;;;;;;;;;4952753;29;20067;-64
2023/03/18 09:55:34;;;;;;;6.90;1.55;;;;;;;;;;4953074;29;20070;-67
2023/03/18 09:58:14;;;;;;;4.05;1.33;;;;;;;;;;4955967;28;20062;-64
2023/03/18 10:00:45;;;;;;;4.68;1.45;;;;;;;;;;4972134;28;20047;-65
2023/03/18 10:03:27;;;;;;;2.95;0.95;;;;;;;;;;4955840;28;20054;-68
2023/03/18 10:06:05;;;;;;;3.08;1.08;;;;;;;;;;4991146;28;20065;-64
2023/03/18 10:08:55;;;;;;;5.97;1.05;;;;;;;;;;4991696;28;20058;-61
2023/03/18 10:11:35;;;;;;;4.68;1.10;;;;;;;;;;4991030;28;20616;-64
2023/03/18 10:14:28;;;;;;;4.30;1.40;;;;;;;;;;4959002;28;20653;-64
2023/03/18 10:17:26;;;;;;;4.30;1.00;;;;;;;;;;4991595;28;20069;-64
2023/03/18 10:19:59;;;;;;;3.42;1.38;;;;;;;;;;5008956;28;20054;-62
2023/03/18 10:22:39;;;;;;;5.95;1.30;;;;;;;;;;5010870;28;20046;-64
2023/03/18 10:25:34;;;;;;;2.90;1.23;;;;;;;;;;5010422;28;20461;-68
2023/03/18 10:28:42;;;;;;;2.38;1.02;;;;;;;;;;4946325;28;20069;-64
2023/03/18 10:31:19;;;;;;;5.50;1.58;;;;;;;;;;4942601;28;20474;-68
2023/03/18 10:34:03;;;;;;;7.43;1.50;;;;;;;;;;4990999;28;20081;-64
2023/03/18 10:36:38;;;;;;;3.67;1.50;;;;;;;;;;4990778;28;20469;-66
2023/03/18 10:39:15;;;;;;;5.53;1.42;;;;;;;;;;4991072;28;20054;-64
2023/03/18 10:41:50;;;;;;;8.82;1.65;;;;;;;;;;4935436;29;20058;-66
2023/03/18 10:44:29;;;;;;;7.10;1.55;;;;;;;;;;4952309;29;20055;-64
2023/03/18 10:47:20;;;;;;;6.50;1.88;;;;;;;;;;4951710;28;20059;-64
2023/03/18 10:50:12;;;;;;;4.25;1.40;;;;;;;;;;4951854;29;20062;-60
2023/03/18 10:52:47;;;;;;;5.80;1.27;;;;;;;;;;4952131;29;20058;-65
2023/03/18 10:55:27;;;;;;;5.75;1.70;;;;;;;;;;4951735;29;20070;-65
2023/03/18 10:57:58;;;;;;;3.72;1.33;;;;;;;;;;4951885;29;20051;-63
2023/03/18 11:00:33;;;;;;;4.72;1.40;;;;;;;;;;4904389;29;20431;-63
2023/03/18 11:03:04;;;;;;;6.47;1.30;;;;;;;;;;4919480;29;20062;-60
2023/03/18 11:05:36;;;;;;;4.00;1.48;;;;;;;;;;4920641;29;20078;-60
2023/03/18 11:08:27;;;;;;;4.22;1.20;;;;;;;;;;4918499;28;20568;-62
2023/03/18 11:10:58;;;;;;;4.00;1.27;;;;;;;;;;4970864;28;20051;-60
2023/03/18 11:13:27;;;;;;;3.15;1.55;;;;;;;;;;4996068;28;20054;-65
2023/03/18 11:15:57;;;;;;;7.63;3.33;;;;;;;;;;5029261;28;20061;-66
2023/03/18 11:18:28;;;;;;;5.15;1.52;;;;;;;;;;5045893;28;20064;-65
2023/03/18 11:21:00;;;;;;;3.83;1.90;;;;;;;;;;4964955;28;20521;-65
2023/03/18 11:23:55;;;;;;;7.35;1.60;;;;;;;;;;5012428;28;20045;-65
2023/03/18 11:26:27;;;;;;;6.30;2.13;;;;;;;;;;4996066;28;20053;-70
2023/03/18 11:29:03;;;;;;;3.92;1.83;;;;;;;;;;5028027;28;20049;-61
2023/03/18 11:31:50;;;;;;;3.08;1.30;;;;;;;;;;4989614;28;20058;-68
2023/03/18 11:34:21;;;;;;;4.38;1.40;;;;;;;;;;4989871;28;20050;-61
2023/03/18 11:37:03;;;;;;;4.18;1.55;;;;;;;;;;4957805;28;20679;-63
2023/03/18 11:39:40;;;;;;;3.47;1.30;;;;;;;;;;4989937;28;20062;-66
2023/03/18 11:42:20;;;;;;;3.05;1.42;;;;;;;;;;4973415;28;20054;-69
2023/03/18 11:44:55;;;;;;;3.75;1.42;;;;;;;;;;4989834;28;20510;-62
2023/03/18 11:47:29;;;;;;;3.83;1.38;;;;;;;;;;5005692;28;20070;-65
2023/03/18 11:50:03;;;;;;;5.90;1.98;;;;;;;;;;4989878;28;20070;-65
2023/03/18 11:52:51;;;;;;;7.82;1.52;;;;;;;;;;4986869;28;20054;-67
2023/03/18 11:55:32;;;;;;;2.35;1.48;;;;;;;;;;4948346;28;20089;-64
2023/03/18 11:58:40;;;;;;;4.57;1.17;;;;;;;;;;4969019;28;20058;-65
2023/03/18 12:01:40;;;;;;;4.22;1.38;;;;;;;;;;4950603;29;20051;-66
2023/03/18 12:04:37;;;;;;;4.20;1.65;;;;;;;;;;4935345;28;20051;-66
2023/03/18 12:07:32;;;;;;;2.72;1.08;;;;;;;;;;4921647;28;20153;-69
2023/03/18 12:10:18;;;;;;;2.63;1.00;;;;;;;;;;4986466;28;20058;-65
2023/03/18 12:12:54;;;;;;;9.45;1.30;;;;;;;;;;4988532;28;20054;-66
2023/03/18 12:15:37;;;;;;;2.33;1.20;;;;;;;;;;4989091;28;20047;-66
2023/03/18 12:18:15;;;;;;;5.63;1.38;;;;;;;;;;4985474;28;20051;-67
2023/03/18 12:20:50;;;;;;;3.85;1.40;;;;;;;;;;4970018;28;20054;-63
2023/03/18 12:23:23;;;;;;;4.97;2.25;;;;;;;;;;4922317;28;20074;-65
2023/03/18 12:25:56;;;;;;;2.35;1.70;;;;;;;;;;4969863;28;20055;-60
2023/03/18 12:28:27;;;;;;;4.40;1.85;;;;;;;;;;4969888;28;20058;-64
2023/03/18 12:31:05;;;;;;;5.15;1.77;;;;;;;;;;4970853;28;20059;-65
2023/03/18 12:34:07;;;;;;;3.83;1.20;;;;;;;;;;4989502;28;20066;-60
2023/03/18 12:36:55;;;;;;;6.28;1.25;;;;;;;;;;4930757;29;20048;-66
2023/03/18 12:39:49;;;;;;;2.80;1.10;;;;;;;;;;4899283;29;20060;-65
2023/03/18 12:42:48;;;;;;;3.88;1.58;;;;;;;;;;4899607;29;20055;-66
2023/03/18 12:45:21;;;;;;;2.42;1.20;;;;;;;;;;4931246;29;20063;-66
2023/03/18 12:48:01;;;;;;;3.05;1.33;;;;;;;;;;4931320;29;20067;-65
2023/03/18 12:50:40;;;;;;;6.15;1.10;;;;;;;;;;4924978;29;20074;-69
2023/03/18 12:53:22;;;;;;;3.42;1.30;;;;;;;;;;4914951;29;20492;-64
2023/03/18 12:56:17;;;;;;;4.05;1.35;;;;;;;;;;4931313;29;20056;-61
2023/03/18 12:59:11;;;;;;;4.78;1.05;;;;;;;;;;4881549;29;20060;-67
2023/03/18 13:01:57;;;;;;;4.90;1.17;;;;;;;;;;4911889;29;20071;-66
2023/03/18 13:04:31;;;;;;;2.53;1.05;;;;;;;;;;4892956;29;20531;-65
2023/03/18 13:07:16;;;;;;;4.20;1.05;;;;;;;;;;4893024;29;20060;-70
2023/03/18 13:10:12;;;;;;;3.35;1.10;;;;;;;;;;4895582;29;20540;-67
2023/03/18 13:12:50;;;;;;;3.78;1.20;;;;;;;;;;4890756;29;20061;-65
2023/03/18 13:15:34;;;;;;;2.75;1.13;;;;;;;;;;4913313;29;20415;-64
2023/03/18 13:18:28;;;;;;;2.50;1.00;;;;;;;;;;4915480;29;20071;-65
2023/03/18 13:21:00;;;;;;;4.15;0.98;;;;;;;;;;4915523;29;20551;-64
2023/03/18 13:24:05;;;;;;;6.75;1.33;;;;;;;;;;4899798;29;20067;-64
2023/03/18 13:26:56;;;;;;;2.65;0.90;;;;;;;;;;4880993;29;20052;-65
2023/03/18 13:29:49;;;;;;;4.55;0.90;;;;;;;;;;4896580;29;20064;-74
2023/03/18 13:32:34;;;;;;;5.20;0.93;;;;;;;;;;4896460;29;20060;-64
2023/03/18 13:35:32;;;;;;;2.33;0.98;;;;;;;;;;4903886;29;20082;-65
2023/03/18 13:38:34;;;;;;;3.40;0.98;;;;;;;;;;4934207;29;20059;-63
2023/03/18 13:41:21;;;;;;;4.95;1.02;;;;;;;;;;4933041;29;20052;-65
2023/03/18 13:43:52;;;;;;;4.28;0.80;;;;;;;;;;4933995;29;20063;-65
2023/03/18 13:46:30;;;;;;;3.55;0.80;;;;;;;;;;4934130;29;20075;-65
2023/03/18 13:49:01;;;;;;;2.70;1.10;;;;;;;;;;4902388;29;20073;-63
2023/03/18 13:51:31;;;;;;;;;;;;;;;;;;4953210;29;20439;-66
2023/03/18 13:54:06;;;;;;;2.70;1.05;;;;;;;;;;4952859;29;19930;-62
2023/03/18 13:56:42;;;;;;;2.47;0.95;;;;;;;;;;4920955;29;20054;-66
2023/03/18 13:59:45;;;;;;;4.47;1.10;;;;;;;;;;4920985;29;20055;-67
2023/03/18 14:02:40;;;;;;;2.67;0.90;;;;;;;;;;4934057;29;20070;-66
2023/03/18 14:05:46;;;;;;;3.33;1.00;;;;;;;;;;4952657;29;20063;-65
2023/03/18 14:08:46;;;;;;;4.50;1.20;;;;;;;;;;4921111;28;20055;-65
2023/03/18 14:11:19;;;;;;;4.82;1.02;;;;;;;;;;4959126;28;20616;-65
2023/03/18 14:13:54;;;;;;;4.38;1.13;;;;;;;;;;4991526;28;20053;-63
2023/03/18 14:16:28;;;;;;;8.60;1.50;;;;;;;;;;4975542;28;20058;-66
2023/03/18 14:19:25;;;;;;;3.40;0.93;;;;;;;;;;4990833;28;20058;-66
2023/03/18 14:22:06;;;;;;;;;;;;;;;;;;4990830;28;20054;-66
2023/03/18 14:24:37;;;;;;;3.92;0.90;;;;;;;;;;4974713;28;19929;-66
2023/03/18 14:27:07;;;;;;;3.15;1.02;;;;;;;;;;4926647;28;20057;-66
2023/03/18 14:29:38;;;;;;;3.53;1.52;;;;;;;;;;4974701;28;20061;-65
2023/03/18 14:32:33;;;;;;;2.53;1.35;;;;;;;;;;4974571;28;20054;-66
2023/03/18 14:35:27;;;;;;;3.25;1.00;;;;;;;;;;4971468;28;20051;-66
2023/03/18 14:38:14;;;;;;;2.25;1.00;;;;;;;;;;4971424;28;20055;-67
2023/03/18 14:40:47;;;;;;;2.80;0.90;;;;;;;;;;4954847;28;20050;-66
2023/03/18 14:43:28;;;;;;;2.25;0.88;;;;;;;;;;5005492;28;20510;-65
2023/03/18 14:46:02;;;;;;;6.00;1.35;;;;;;;;;;5010239;28;20106;-66
2023/03/18 14:48:34;;;;;;;1.90;0.98;;;;;;;;;;5010379;28;20073;-67
2023/03/18 14:51:15;;;;;;;1.95;1.00;;;;;;;;;;5010044;28;20096;-65
2023/03/18 14:53:51;;;;;;;3.28;1.42;;;;;;;;;;5010206;28;20469;-65
2023/03/18 14:56:24;;;;;;;8.07;1.33;;;;;;;;;;5002453;28;20063;-66
2023/03/18 14:58:55;;;;;;;2.47;1.02;;;;;;;;;;4990497;28;20410;-65
2023/03/18 15:01:43;;;;;;;4.78;1.00;;;;;;;;;;4990122;28;20061;-67
2023/03/18 15:04:22;;;;;;;2.75;1.05;;;;;;;;;;4974199;28;20066;-66
2023/03/18 15:06:55;;;;;;;2.95;0.80;;;;;;;;;;4990398;28;20413;-66
2023/03/18 15:09:29;;;;;;;2.40;0.68;;;;;;;;;;4990340;28;20073;-66
2023/03/18 15:11:59;;;;;;;4.75;1.45;;;;;;;;;;4996537;28;20064;-67
2023/03/18 15:14:31;;;;;;;2.88;0.82;;;;;;;;;;5029425;28;20066;-66
2023/03/18 15:17:10;;;;;;;1.52;0.80;;;;;;;;;;4997677;28;20057;-66
2023/03/18 15:19:40;;;;;;;1.98;0.70;;;;;;;;;;5029518;28;20064;-65
2023/03/18 15:22:20;;;;;;;3.30;0.80;;;;;;;;;;5031996;28;20072;-66
2023/03/18 15:24:57;;;;;;;1.40;0.73;;;;;;;;;;5032181;28;20046;-66
2023/03/18 15:27:33;;;;;;;2.92;0.90;;;;;;;;;;5031974;28;20397;-65
2023/03/18 15:30:05;;;;;;;1.90;0.63;;;;;;;;;;5030793;28;20501;-66
2023/03/18 15:32:50;;;;;;;2.60;0.80;;;;;;;;;;5028062;28;20057;-63
2023/03/18 15:35:25;;;;;;;2.38;0.80;;;;;;;;;;5029062;28;20137;-70